Kezdőlap
METAR-TAF:

METAR-TAF

Repülőterek :

Sanikiluaq, Nunavut, Kanada

földrajzi szélesség: 56-32N, földrajzi hosszúság: 079-15W, magasság: 32 m

Jelenlegi meteorológiai megfigyelések

A jelentés 20 perccel ezelõtt készült, 17:00 UTC
Észak-északkeleti szél 8 kt
Hőmérséklet 13°C
Páratartalom 72%
Légköri nyomás 1026 hPa
Látótávolság: 24.1 km
Derült ég

METAR: CYSK 131700Z 02008KT 15SM SKC 13/08 A3030 RMK SLP265

Idő: 13:20 (17:20 UTC)


TAF: hiányzik

Meteorológiai megfigyelések és előrejelzések több, mint 4000 repülőtéren (METAR és TAF jelentéseket).

A térképen piros és sárga pontok jelzik az elérhető meteorológiai állomásokat.

Mozgassa az egeret a pont fölött, hogy megjelenjen az állomás neve.

Azután kattintson az időjárási megfigyelések és előrejelzések megtekintéséhez.

A térkép megváltoztatása: kattintson a fekete keresztel jelölt zöld gombra ráközelítéshez, a vonallal jelölt zöld gombra távolításhoz, vagy a zöld nyilakra a szomszédos térképek eléréséhez.


METAR-TAF: